Time;durP1;ratioP1;P1;durP2;ratioP2;P2;SDS_P1;SDS_P2;PMS_P1;PMS_P2;Temp;Humidity;BMP_temperature;BMP_pressure;BME280_temperature;BME280_humidity;BME280_pressure;Samples;Min_cycle;Max_cycle;Signal;HPM_P1;HPM_P2
2021/04/05 00:01:52;;;;;;;6.68;2.80;;;22.00;75.10;;;;;;5026882;28;20018;-68
2021/04/05 00:04:18;;;;;;;9.55;3.10;;;22.00;75.10;;;;;;5022609;28;20017;-69
2021/04/05 00:06:45;;;;;;;8.52;2.58;;;22.00;75.00;;;;;;5030078;28;20053;-67
2021/04/05 00:09:13;;;;;;;9.52;3.38;;;21.90;75.00;;;;;;5027060;28;20025;-67
2021/04/05 00:11:39;;;;;;;8.70;2.72;;;21.90;75.00;;;;;;5030490;28;20026;-68
2021/04/05 00:14:06;;;;;;;13.90;2.50;;;21.90;74.90;;;;;;5030091;28;20502;-67
2021/04/05 00:16:33;;;;;;;7.55;2.00;;;21.90;75.00;;;;;;5031385;28;20028;-70
2021/04/05 00:18:59;;;;;;;6.53;2.50;;;21.90;75.00;;;;;;5027424;28;20930;-68
2021/04/05 00:21:27;;;;;;;7.00;2.38;;;21.90;75.00;;;;;;5031575;28;21007;-68
2021/04/05 00:23:54;;;;;;;7.47;2.42;;;21.90;75.00;;;;;;5026274;28;20022;-67
2021/04/05 00:26:22;;;;;;;7.15;2.63;;;21.90;75.10;;;;;;5027075;28;20046;-69
2021/04/05 00:28:49;;;;;;;11.02;3.30;;;21.90;75.10;;;;;;5027075;28;20075;-67
2021/04/05 00:31:17;;;;;;;11.70;3.67;;;21.90;75.10;;;;;;5026985;28;20037;-68
2021/04/05 00:33:43;;;;;;;9.77;3.20;;;21.90;75.10;;;;;;5026041;28;20037;-67
2021/04/05 00:36:10;;;;;;;10.05;3.05;;;21.80;75.10;;;;;;5027097;28;20050;-66
2021/04/05 00:38:36;;;;;;;8.70;2.40;;;21.80;75.10;;;;;;5024915;28;20025;-67
2021/04/05 00:41:09;;;;;;;10.75;2.15;;;21.80;75.10;;;;;;5024383;28;20109;-67
2021/04/05 00:43:37;;;;;;;8.05;2.00;;;21.80;75.20;;;;;;5024181;28;20029;-68
2021/04/05 00:46:04;;;;;;;11.20;3.70;;;21.80;75.20;;;;;;5028927;28;20029;-69
2021/04/05 00:48:31;;;;;;;11.00;2.80;;;21.80;75.20;;;;;;5025184;28;20476;-67
2021/04/05 00:51:00;;;;;;;10.02;2.95;;;21.80;75.20;;;;;;5023956;28;20049;-67
2021/04/05 00:53:34;;;;;;;9.63;2.38;;;21.80;75.20;;;;;;5026026;28;20422;-67
2021/04/05 00:56:01;;;;;;;11.48;2.22;;;21.80;75.30;;;;;;5022330;28;20077;-69
2021/04/05 00:58:28;;;;;;;8.30;2.38;;;21.70;75.20;;;;;;5026995;28;20021;-69
2021/04/05 01:00:59;;;;;;;12.43;3.20;;;21.70;75.20;;;;;;5023833;28;20481;-67
2021/04/05 01:03:27;;;;;;;8.70;2.38;;;21.70;75.30;;;;;;5030455;28;20103;-67
2021/04/05 01:06:00;;;;;;;8.88;2.85;;;21.70;75.20;;;;;;5025406;28;20028;-67
2021/04/05 01:08:27;;;;;;;7.43;2.53;;;21.70;75.20;;;;;;5024563;28;20037;-66
2021/04/05 01:10:53;;;;;;;8.68;2.40;;;21.70;75.30;;;;;;5027958;28;20026;-67
2021/04/05 01:13:21;;;;;;;6.35;2.20;;;21.70;75.40;;;;;;5019013;28;20029;-67
2021/04/05 01:15:47;;;;;;;11.05;2.85;;;21.70;75.40;;;;;;5027800;28;20048;-67
2021/04/05 01:18:15;;;;;;;7.85;2.05;;;21.70;75.40;;;;;;5024372;28;20021;-68
2021/04/05 01:20:45;;;;;;;11.45;2.08;;;21.70;75.40;;;;;;5020652;28;20046;-69
2021/04/05 01:23:12;;;;;;;7.20;1.85;;;21.70;75.50;;;;;;5024014;28;20038;-70
2021/04/05 01:25:38;;;;;;;9.48;2.50;;;21.70;75.50;;;;;;5026090;28;20028;-66
2021/04/05 01:28:06;;;;;;;10.23;2.58;;;21.70;75.50;;;;;;5029670;28;20032;-67
2021/04/05 01:30:46;;;;;;;6.00;1.70;;;21.70;75.60;;;;;;5025426;28;20039;-68
2021/04/05 01:33:17;;;;;;;6.50;1.77;;;21.60;75.60;;;;;;5029036;28;20132;-67
2021/04/05 01:35:46;;;;;;;6.13;1.65;;;21.60;75.50;;;;;;5021489;28;20088;-67
2021/04/05 01:38:14;;;;;;;7.85;2.75;;;21.60;75.50;;;;;;5030865;28;20054;-66
2021/04/05 01:40:48;;;;;;;8.98;1.83;;;21.60;75.50;;;;;;5028281;28;20025;-67
2021/04/05 01:43:15;;;;;;;8.15;2.30;;;21.60;75.60;;;;;;5023579;28;20022;-67
2021/04/05 01:45:43;;;;;;;6.95;1.98;;;21.60;75.60;;;;;;5021744;28;20025;-66
2021/04/05 01:48:13;;;;;;;6.78;1.67;;;21.60;75.70;;;;;;5028757;28;20052;-67
2021/04/05 01:50:41;;;;;;;8.02;3.55;;;21.60;75.70;;;;;;5026664;28;20477;-68
2021/04/05 01:53:08;;;;;;;7.47;1.90;;;21.50;75.60;;;;;;5018703;28;20029;-70
2021/04/05 01:55:37;;;;;;;6.35;1.98;;;21.50;75.60;;;;;;5021761;28;20038;-69
2021/04/05 01:58:05;;;;;;;5.90;1.40;;;21.50;75.60;;;;;;5026008;28;20544;-67
2021/04/05 02:00:37;;;;;;;8.00;1.70;;;21.50;75.70;;;;;;5020619;28;20033;-67
2021/04/05 02:03:08;;;;;;;7.20;1.73;;;21.50;75.60;;;;;;5029308;28;20538;-67
2021/04/05 02:05:44;;;;;;;6.90;2.08;;;21.50;75.60;;;;;;5020548;28;20392;-67
2021/04/05 02:08:11;;;;;;;5.38;1.52;;;21.50;75.70;;;;;;5026238;28;20769;-67
2021/04/05 02:10:37;;;;;;;4.05;1.63;;;21.50;75.60;;;;;;5024917;28;20048;-67
2021/04/05 02:13:05;;;;;;;11.45;2.42;;;21.50;75.60;;;;;;5025578;28;20034;-67
2021/04/05 02:15:34;;;;;;;7.53;2.22;;;21.50;75.60;;;;;;5023475;28;20124;-67
2021/04/05 02:18:01;;;;;;;10.57;2.33;;;21.50;75.60;;;;;;5019073;28;20019;-67
2021/04/05 02:20:29;;;;;;;7.47;2.20;;;21.50;75.70;;;;;;5029765;28;20075;-68
2021/04/05 02:22:57;;;;;;;10.98;2.47;;;21.50;75.60;;;;;;5021727;28;20441;-67
2021/04/05 02:25:25;;;;;;;12.05;3.15;;;21.50;75.60;;;;;;5029415;28;20025;-71
2021/04/05 02:27:53;;;;;;;11.68;2.47;;;21.40;75.60;;;;;;5029360;28;20021;-67
2021/04/05 02:30:24;;;;;;;12.93;2.88;;;21.40;75.70;;;;;;5029042;28;20022;-67
2021/04/05 02:32:55;;;;;;;13.77;2.40;;;21.40;75.60;;;;;;5023172;28;20400;-67
2021/04/05 02:35:24;;;;;;;12.52;2.40;;;21.40;76.30;;;;;;5026800;28;20033;-68
2021/04/05 02:37:52;;;;;;;10.25;3.72;;;21.40;75.70;;;;;;5027412;28;20028;-67
2021/04/05 02:40:19;;;;;;;7.80;2.65;;;21.40;75.60;;;;;;5021511;28;20531;-68
2021/04/05 02:42:51;;;;;;;8.10;2.20;;;21.40;75.60;;;;;;5026937;28;20032;-68
2021/04/05 02:45:19;;;;;;;11.30;3.38;;;21.40;75.90;;;;;;5027033;28;20018;-67
2021/04/05 02:47:49;;;;;;;10.98;2.97;;;21.40;75.60;;;;;;5028768;28;20105;-69
2021/04/05 02:50:16;;;;;;;13.80;2.95;;;21.40;75.60;;;;;;5031211;28;20029;-67
2021/04/05 02:52:43;;;;;;;12.68;2.97;;;21.40;75.50;;;;;;5029264;28;20030;-67
2021/04/05 02:55:12;;;;;;;11.45;2.60;;;21.40;75.60;;;;;;5020224;28;20037;-68
2021/04/05 02:57:40;;;;;;;8.38;2.67;;;21.40;75.60;;;;;;5020992;28;20026;-67
2021/04/05 03:00:15;;;;;;;10.27;3.50;;;21.40;75.60;;;;;;5027895;28;20036;-70
2021/04/05 03:02:47;;;;;;;7.35;2.67;;;21.40;75.60;;;;;;5022896;28;20033;-67
2021/04/05 03:05:17;;;;;;;12.60;3.15;;;21.40;75.60;;;;;;5027740;28;20022;-68
2021/04/05 03:07:44;;;;;;;6.82;2.58;;;21.30;75.60;;;;;;5026451;28;20014;-68
2021/04/05 03:10:13;;;;;;;9.45;2.28;;;21.30;75.60;;;;;;5026719;28;20028;-70
2021/04/05 03:12:42;;;;;;;9.20;2.35;;;21.40;75.60;;;;;;5020558;28;20018;-69
2021/04/05 03:15:13;;;;;;;14.95;3.33;;;21.30;75.60;;;;;;5025791;28;20029;-67
2021/04/05 03:17:41;;;;;;;13.77;2.78;;;21.30;75.60;;;;;;5029495;28;20032;-69
2021/04/05 03:20:17;;;;;;;11.85;3.17;;;21.30;75.60;;;;;;5026229;28;20014;-68
2021/04/05 03:22:45;;;;;;;9.65;3.28;;;21.30;75.60;;;;;;5020713;28;20030;-68
2021/04/05 03:25:19;;;;;;;9.13;2.50;;;21.30;75.70;;;;;;5023368;28;20022;-67
2021/04/05 03:27:47;;;;;;;15.48;3.28;;;21.30;75.70;;;;;;5019929;28;20652;-69
2021/04/05 03:30:25;;;;;;;7.57;2.70;;;21.30;75.80;;;;;;5027637;28;20033;-67
2021/04/05 03:33:22;;;;;;;14.77;4.53;;;21.30;75.90;;;;;;5019144;28;20512;-67
2021/04/05 03:35:56;;;;;;;15.57;3.90;;;21.30;75.90;;;;;;5022590;28;20042;-68
2021/04/05 03:38:23;;;;;;;23.00;13.77;;;21.20;75.80;;;;;;5030647;28;20400;-70
2021/04/05 03:40:50;;;;;;;19.75;10.95;;;21.20;75.90;;;;;;5022380;28;20022;-69
2021/04/05 03:43:31;;;;;;;17.27;7.50;;;21.20;76.00;;;;;;5026493;28;20112;-68
2021/04/05 03:46:05;;;;;;;24.83;7.22;;;21.20;76.00;;;;;;5024879;28;20029;-67
2021/04/05 03:48:32;;;;;;;16.13;5.37;;;21.20;76.00;;;;;;5026771;28;20014;-68
2021/04/05 03:51:35;;;;;;;22.85;4.93;;;21.20;76.00;;;;;;5022358;28;20032;-69
2021/04/05 03:54:13;;;;;;;11.85;4.35;;;21.20;76.00;;;;;;5017370;28;20042;-69
2021/04/05 03:56:51;;;;;;;12.90;3.08;;;21.20;76.00;;;;;;5026731;28;20389;-67
2021/04/05 03:59:24;;;;;;;10.23;3.10;;;21.20;76.00;;;;;;5021102;28;20053;-66
2021/04/05 04:01:54;;;;;;;11.75;3.22;;;21.20;75.90;;;;;;5022722;28;20072;-69
2021/04/05 04:04:27;;;;;;;10.10;2.88;;;21.20;75.90;;;;;;5036606;28;20430;-67
2021/04/05 04:07:12;;;;;;;14.00;7.03;;;21.20;76.00;;;;;;5018339;28;20036;-69
2021/04/05 04:09:40;;;;;;;20.70;12.32;;;21.20;76.00;;;;;;5022166;28;20507;-68
2021/04/05 04:12:11;;;;;;;19.25;8.38;;;21.20;76.10;;;;;;5027421;28;20104;-67
2021/04/05 04:14:39;;;;;;;23.13;7.18;;;21.20;76.10;;;;;;5025406;28;20080;-69
2021/04/05 04:17:10;;;;;;;11.65;5.22;;;21.20;76.10;;;;;;5027897;28;20117;-68
2021/04/05 04:19:38;;;;;;;13.52;4.32;;;21.20;76.10;;;;;;5028636;28;20029;-68
2021/04/05 04:22:06;;;;;;;17.50;5.05;;;21.20;76.20;;;;;;5025779;28;20048;-68
2021/04/05 04:24:36;;;;;;;6.45;2.65;;;21.10;76.10;;;;;;5030636;28;20503;-68
2021/04/05 04:27:04;;;;;;;11.73;3.60;;;21.10;76.20;;;;;;5024767;28;20155;-67
2021/04/05 04:29:31;;;;;;;12.20;3.63;;;21.10;76.90;;;;;;5034195;28;20022;-67
2021/04/05 04:31:58;;;;;;;12.48;3.53;;;21.10;76.30;;;;;;5029947;28;20147;-68
2021/04/05 04:34:24;;;;;;;14.00;3.50;;;21.10;76.30;;;;;;5027660;28;20029;-66
2021/04/05 04:36:52;;;;;;;10.63;3.92;;;21.10;76.30;;;;;;5024853;28;20029;-69
2021/04/05 04:39:19;;;;;;;13.23;2.83;;;21.10;76.40;;;;;;5031780;28;20060;-68
2021/04/05 04:41:48;;;;;;;9.40;3.17;;;21.10;76.40;;;;;;5026372;28;20076;-70
2021/04/05 04:44:15;;;;;;;9.05;2.78;;;21.10;76.50;;;;;;5028638;28;20386;-68
2021/04/05 04:46:42;;;;;;;12.57;3.80;;;21.10;76.40;;;;;;5026921;28;20030;-66
2021/04/05 04:49:11;;;;;;;14.63;2.85;;;21.00;76.40;;;;;;5030120;28;20034;-68
2021/04/05 04:51:38;;;;;;;10.98;2.92;;;21.00;76.50;;;;;;5027716;28;20392;-68
2021/04/05 04:54:07;;;;;;;11.05;3.85;;;21.10;76.50;;;;;;5025197;28;20022;-70
2021/04/05 04:56:34;;;;;;;10.23;2.60;;;21.00;76.50;;;;;;5031187;28;20467;-67
2021/04/05 04:59:06;;;;;;;13.60;5.70;;;21.10;76.50;;;;;;5023926;28;20495;-68
2021/04/05 05:01:46;;;;;;;11.38;3.17;;;21.00;76.50;;;;;;5030996;28;20034;-68
2021/04/05 05:04:26;;;;;;;8.25;3.08;;;21.00;76.50;;;;;;5026795;28;20431;-67
2021/04/05 05:06:54;;;;;;;9.07;3.17;;;21.00;76.50;;;;;;5022670;28;20029;-70
2021/04/05 05:09:22;;;;;;;9.07;3.25;;;21.00;76.60;;;;;;5026218;28;20028;-68
2021/04/05 05:11:48;;;;;;;14.20;4.07;;;21.00;76.60;;;;;;5026898;28;20026;-67
2021/04/05 05:14:16;;;;;;;13.57;3.67;;;21.00;76.60;;;;;;5029131;28;20068;-68
2021/04/05 05:16:44;;;;;;;10.82;3.28;;;21.00;76.70;;;;;;5027214;28;20033;-69
2021/04/05 05:19:13;;;;;;;25.15;11.52;;;21.00;76.70;;;;;;5024088;28;20041;-67
2021/04/05 05:21:45;;;;;;;18.70;10.82;;;21.00;76.80;;;;;;5021184;28;20104;-68
2021/04/05 05:24:18;;;;;;;23.45;10.68;;;20.90;76.80;;;;;;5024625;28;20190;-68
2021/04/05 05:26:47;;;;;;;21.45;9.05;;;21.00;76.90;;;;;;5028645;28;20025;-69
2021/04/05 05:29:17;;;;;;;16.63;7.40;;;21.00;77.00;;;;;;5024610;28;20022;-69
2021/04/05 05:31:44;;;;;;;13.40;5.05;;;20.90;77.00;;;;;;5025637;28;20065;-70
2021/04/05 05:34:30;;;;;;;13.93;5.95;;;21.00;77.00;;;;;;5026570;28;20022;-68
2021/04/05 05:36:56;;;;;;;;;;;21.00;77.00;;;;;;5023487;28;20039;-71
2021/04/05 05:39:23;;;;;;;15.38;3.85;;;20.90;77.00;;;;;;5030938;28;19908;-67
2021/04/05 05:42:10;;;;;;;9.38;3.58;;;21.00;77.10;;;;;;5028618;28;20075;-69
2021/04/05 05:44:43;;;;;;;10.10;3.28;;;21.00;77.20;;;;;;5020537;28;20022;-69
2021/04/05 05:47:29;;;;;;;10.82;3.83;;;21.00;77.20;;;;;;5029918;28;20108;-68
2021/04/05 05:50:04;;;;;;;13.45;3.75;;;21.00;77.30;;;;;;5027655;28;20480;-69
2021/04/05 05:52:50;;;;;;;16.70;3.40;;;21.00;77.30;;;;;;5025791;28;20018;-70
2021/04/05 05:55:44;;;;;;;16.38;4.13;;;21.00;77.30;;;;;;5027388;28;20485;-70
2021/04/05 05:58:45;;;;;;;20.38;3.45;;;21.00;77.40;;;;;;5023244;28;20858;-69
2021/04/05 06:01:26;;;;;;;13.07;4.13;;;21.00;77.40;;;;;;5023640;28;20049;-68
2021/04/05 06:04:06;;;;;;;16.85;8.25;;;21.00;77.50;;;;;;5026600;28;20119;-69
2021/04/05 06:07:24;;;;;;;19.33;12.02;;;21.00;77.50;;;;;;5020612;28;20017;-69
2021/04/05 06:10:28;;;;;;;19.08;9.07;;;21.00;77.50;;;;;;5025700;28;20030;-67
2021/04/05 06:13:23;;;;;;;18.85;6.50;;;21.00;77.60;;;;;;5027313;28;20072;-67
2021/04/05 06:16:15;;;;;;;16.10;6.63;;;21.00;77.70;;;;;;5018726;28;20034;-67
2021/04/05 06:19:00;;;;;;;18.83;5.65;;;21.00;77.80;;;;;;5023371;28;20286;-70
2021/04/05 06:22:13;;;;;;;18.63;4.95;;;21.00;77.90;;;;;;5021949;28;20032;-67
2021/04/05 06:25:31;;;;;;;17.77;3.13;;;21.00;78.10;;;;;;5021679;28;20025;-67
2021/04/05 06:28:35;;;;;;;12.93;3.63;;;21.00;78.20;;;;;;5022219;28;20037;-70
2021/04/05 06:31:05;;;;;;;13.27;3.63;;;21.00;78.20;;;;;;5026419;28;20032;-69
2021/04/05 06:34:11;;;;;;;18.10;5.57;;;21.00;78.30;;;;;;5020259;28;20389;-69
2021/04/05 06:37:09;;;;;;;7.68;2.97;;;21.00;78.30;;;;;;5022063;28;20408;-69
2021/04/05 06:40:18;;;;;;;16.17;4.07;;;21.10;78.40;;;;;;5019215;28;20052;-69
2021/04/05 06:43:24;;;;;;;14.25;3.50;;;21.10;78.50;;;;;;5024364;28;20045;-66
2021/04/05 06:46:41;;;;;;;10.68;3.28;;;21.10;78.60;;;;;;5026497;28;20076;-71
2021/04/05 06:49:14;;;;;;;8.95;2.90;;;21.10;78.60;;;;;;5024964;28;20661;-68
2021/04/05 06:51:57;;;;;;;13.85;3.88;;;21.10;78.60;;;;;;5026936;28;20384;-64
2021/04/05 06:54:28;;;;;;;7.13;2.50;;;21.20;78.70;;;;;;5021944;28;20072;-64
2021/04/05 06:56:55;;;;;;;9.02;4.60;;;21.20;78.70;;;;;;5024443;28;20049;-67
2021/04/05 07:00:05;;;;;;;17.08;7.25;;;21.20;78.80;;;;;;5022269;28;20372;-66
2021/04/05 07:03:02;;;;;;;11.63;6.43;;;21.20;78.70;;;;;;5024936;28;20317;-72
2021/04/05 07:05:55;;;;;;;16.52;7.80;;;21.20;78.70;;;;;;5018759;28;20017;-68
2021/04/05 07:08:58;;;;;;;7.90;3.88;;;21.30;78.80;;;;;;5023506;28;20028;-67
2021/04/05 07:11:42;;;;;;;11.43;3.53;;;21.30;79.40;;;;;;5022157;28;20020;-67
2021/04/05 07:14:30;;;;;;;9.70;3.25;;;21.40;78.80;;;;;;5021329;28;20026;-68
2021/04/05 07:17:19;;;;;;;9.20;3.00;;;21.40;78.80;;;;;;5023906;28;20014;-70
2021/04/05 07:19:56;;;;;;;5.95;2.67;;;21.40;78.80;;;;;;5022980;28;20029;-70
2021/04/05 07:22:57;;;;;;;11.77;3.33;;;21.40;78.80;;;;;;5026503;28;20030;-69
2021/04/05 07:26:00;;;;;;;10.57;3.55;;;21.50;78.80;;;;;;5017969;28;20079;-67
2021/04/05 07:28:48;;;;;;;9.75;3.38;;;21.50;78.80;;;;;;5018642;28;20093;-66
2021/04/05 07:31:35;;;;;;;5.25;2.92;;;21.60;78.80;;;;;;5027392;28;20101;-68
2021/04/05 07:34:21;;;;;;;10.18;3.72;;;21.60;78.80;;;;;;5023843;28;20065;-70
2021/04/05 07:37:04;;;;;;;8.35;2.55;;;21.60;78.70;;;;;;5027824;28;20040;-65
2021/04/05 07:40:11;;;;;;;16.88;4.10;;;21.60;78.70;;;;;;5020568;28;20053;-65
2021/04/05 07:43:00;;;;;;;9.43;5.38;;;21.70;78.70;;;;;;5020487;28;20048;-69
2021/04/05 07:45:42;;;;;;;15.27;10.10;;;21.70;78.60;;;;;;5025070;28;20025;-71
2021/04/05 07:48:29;;;;;;;13.30;7.97;;;21.70;78.70;;;;;;5027943;28;20160;-74
2021/04/05 07:51:16;;;;;;;13.25;6.72;;;21.70;78.50;;;;;;5023150;28;20091;-69
2021/04/05 07:53:57;;;;;;;9.13;4.72;;;21.80;78.40;;;;;;5028838;28;20098;-68
2021/04/05 07:56:44;;;;;;;6.07;3.88;;;21.80;78.20;;;;;;5027612;28;20065;-67
2021/04/05 07:59:31;;;;;;;6.95;3.33;;;21.90;78.20;;;;;;5033168;28;20428;-67
2021/04/05 08:02:19;;;;;;;6.38;2.78;;;21.90;77.90;;;;;;5029122;28;20044;-69
2021/04/05 08:05:14;;;;;;;6.20;2.28;;;21.90;77.80;;;;;;5026418;28;20503;-67
2021/04/05 08:08:14;;;;;;;8.75;2.25;;;21.90;77.40;;;;;;5021458;28;20034;-70
2021/04/05 08:10:47;;;;;;;5.35;2.38;;;22.00;77.30;;;;;;5027543;28;20114;-69
2021/04/05 08:13:45;;;;;;;7.05;2.47;;;22.00;77.00;;;;;;5023607;28;20026;-71
2021/04/05 08:16:38;;;;;;;15.48;3.63;;;22.00;76.90;;;;;;5026194;28;20029;-67
2021/04/05 08:19:36;;;;;;;5.22;1.70;;;22.10;76.80;;;;;;5025688;28;20064;-71
2021/04/05 08:22:41;;;;;;;10.27;2.40;;;22.10;76.50;;;;;;5028466;28;20103;-65
2021/04/05 08:25:14;;;;;;;7.30;2.90;;;22.10;76.10;;;;;;5022468;28;20017;-70
2021/04/05 08:28:36;;;;;;;8.50;3.22;;;22.10;75.90;;;;;;5018579;28;20417;-70
2021/04/05 08:31:08;;;;;;;9.63;3.30;;;22.20;75.70;;;;;;5014262;28;20072;-75
2021/04/05 08:33:53;;;;;;;7.93;3.17;;;22.20;75.40;;;;;;5017224;28;20049;-71
2021/04/05 08:36:46;;;;;;;13.50;3.72;;;22.20;75.20;;;;;;5019219;28;20485;-65
2021/04/05 08:40:10;;;;;;;6.63;3.83;;;22.20;75.10;;;;;;5016742;28;20452;-68
2021/04/05 08:43:12;;;;;;;10.38;3.78;;;22.30;75.00;;;;;;5007145;28;20586;-76
2021/04/05 08:46:27;;;;;;;8.45;2.88;;;22.30;74.80;;;;;;5019958;28;20033;-69
2021/04/05 08:49:17;;;;;;;10.82;2.78;;;22.40;74.50;;;;;;5014113;28;20061;-65
2021/04/05 08:51:57;;;;;;;6.72;2.20;;;22.40;74.30;;;;;;5012694;28;20127;-72
2021/04/05 08:54:28;;;;;;;8.93;2.17;;;22.40;74.10;;;;;;5016853;28;20065;-65
2021/04/05 08:56:59;;;;;;;11.88;3.53;;;22.40;73.70;;;;;;5015969;28;20032;-70
2021/04/05 08:59:40;;;;;;;12.02;2.00;;;22.50;73.50;;;;;;5013896;28;20026;-63
2021/04/05 09:02:19;;;;;;;7.82;2.50;;;22.50;73.30;;;;;;5016622;28;20026;-70
2021/04/05 09:04:48;;;;;;;7.53;3.13;;;22.50;73.10;;;;;;5012204;28;20049;-64
2021/04/05 09:07:30;;;;;;;8.80;2.55;;;22.60;72.90;;;;;;5017062;28;20725;-69
2021/04/05 09:09:59;;;;;;;13.35;2.20;;;22.60;72.80;;;;;;5017197;28;20481;-71
2021/04/05 09:12:29;;;;;;;6.55;2.38;;;22.60;72.60;;;;;;5016669;28;20535;-64
2021/04/05 09:15:07;;;;;;;9.15;2.55;;;22.60;72.60;;;;;;5016206;28;20069;-64
2021/04/05 09:17:49;;;;;;;17.23;11.13;;;22.60;72.40;;;;;;5016986;28;20025;-72
2021/04/05 09:20:34;;;;;;;11.60;5.55;;;22.60;72.30;;;;;;5016677;28;20021;-68
2021/04/05 09:23:26;;;;;;;8.15;4.00;;;22.60;72.20;;;;;;5016869;28;20108;-69
2021/04/05 09:26:18;;;;;;;8.60;3.40;;;22.60;72.10;;;;;;5016720;28;20021;-72
2021/04/05 09:28:57;;;;;;;9.02;3.20;;;22.60;71.90;;;;;;5015561;28;20018;-65
2021/04/05 09:31:39;;;;;;;6.63;2.90;;;22.70;71.80;;;;;;5016837;28;20033;-69
2021/04/05 09:34:46;;;;;;;7.00;2.55;;;22.70;71.80;;;;;;5017502;28;20029;-68
2021/04/05 09:37:54;;;;;;;7.35;2.30;;;22.80;71.70;;;;;;5022778;28;20470;-65
2021/04/05 09:40:57;;;;;;;4.88;3.13;;;22.80;71.50;;;;;;5016460;28;20041;-69
2021/04/05 09:44:01;;;;;;;4.93;1.88;;;22.80;71.30;;;;;;5014798;28;20026;-67
2021/04/05 09:46:48;;;;;;;6.93;3.85;;;22.80;71.20;;;;;;5018002;28;20101;-73
2021/04/05 09:49:42;;;;;;;9.20;2.65;;;22.90;71.80;;;;;;5018585;28;20436;-68
2021/04/05 09:52:23;;;;;;;6.72;2.15;;;23.00;71.00;;;;;;5016001;28;20111;-65
2021/04/05 09:54:59;;;;;;;4.68;1.63;;;23.00;70.70;;;;;;5015213;28;20771;-70
2021/04/05 09:57:41;;;;;;;9.75;3.45;;;23.10;70.50;;;;;;5015182;28;20025;-67
2021/04/05 10:00:12;;;;;;;9.32;1.70;;;23.10;70.30;;;;;;5013020;28;20013;-71
2021/04/05 10:03:04;;;;;;;6.38;1.58;;;23.20;70.00;;;;;;5016538;28;20115;-69
2021/04/05 10:05:35;;;;;;;7.13;1.73;;;23.20;69.80;;;;;;5014940;28;20063;-65
2021/04/05 10:08:02;;;;;;;8.82;4.90;;;23.20;69.40;;;;;;5014511;28;20469;-65
2021/04/05 10:10:31;;;;;;;5.30;2.88;;;23.30;69.20;;;;;;5016703;28;20034;-69
2021/04/05 10:13:03;;;;;;;6.38;2.80;;;23.30;69.00;;;;;;5017022;28;20072;-69
2021/04/05 10:15:30;;;;;;;7.43;2.97;;;23.40;68.90;;;;;;5014703;28;20042;-63
2021/04/05 10:18:00;;;;;;;11.40;3.83;;;23.40;68.50;;;;;;5015812;28;20101;-70
2021/04/05 10:20:31;;;;;;;6.55;4.90;;;23.50;68.50;;;;;;5015553;28;20064;-74
2021/04/05 10:23:09;;;;;;;10.25;4.13;;;23.50;68.40;;;;;;5016603;28;20068;-65
2021/04/05 10:25:37;;;;;;;7.72;2.72;;;23.50;68.20;;;;;;5016918;28;20014;-63
2021/04/05 10:28:43;;;;;;;10.45;3.63;;;23.60;68.20;;;;;;5020101;28;20032;-65
2021/04/05 10:31:15;;;;;;;5.40;2.78;;;23.60;68.10;;;;;;5014767;28;20022;-64
2021/04/05 10:33:48;;;;;;;7.63;3.17;;;23.70;68.00;;;;;;5015961;28;20042;-64
2021/04/05 10:36:23;;;;;;;5.60;2.17;;;23.70;67.70;;;;;;5016726;28;20042;-68
2021/04/05 10:38:51;;;;;;;5.70;2.53;;;23.70;67.60;;;;;;5014708;28;20049;-66
2021/04/05 10:41:24;;;;;;;12.15;2.75;;;23.70;67.50;;;;;;5017563;28;20017;-65
2021/04/05 10:43:59;;;;;;;7.53;2.53;;;23.80;67.30;;;;;;5014107;28;20041;-67
2021/04/05 10:47:01;;;;;;;20.17;3.03;;;23.80;67.00;;;;;;5019377;28;20064;-63
2021/04/05 10:49:33;;;;;;;47.53;6.25;;;23.80;66.80;;;;;;5020248;28;20042;-68
2021/04/05 10:52:12;;;;;;;36.75;5.68;;;23.90;66.60;;;;;;5015887;28;20026;-63
2021/04/05 10:54:41;;;;;;;19.00;3.25;;;23.90;66.50;;;;;;5015034;28;20037;-63
2021/04/05 10:57:17;;;;;;;16.02;3.92;;;23.90;66.30;;;;;;5016787;28;20407;-63
2021/04/05 10:59:53;;;;;;;18.27;3.45;;;24.00;66.30;;;;;;5012805;28;20022;-64
2021/04/05 11:02:42;;;;;;;16.83;3.20;;;24.00;66.10;;;;;;5015105;28;20596;-64
2021/04/05 11:05:16;;;;;;;9.25;3.30;;;24.10;65.90;;;;;;5014166;28;20018;-64
2021/04/05 11:07:47;;;;;;;19.20;5.57;;;24.10;65.60;;;;;;5018445;28;20034;-65
2021/04/05 11:10:26;;;;;;;9.98;3.72;;;24.10;65.50;;;;;;5014952;28;20026;-64
2021/04/05 11:13:07;;;;;;;8.25;2.35;;;24.10;65.50;;;;;;5017301;28;20436;-64
2021/04/05 11:15:38;;;;;;;9.63;5.43;;;24.20;65.50;;;;;;5014557;28;20045;-71
2021/04/05 11:18:10;;;;;;;11.38;3.72;;;24.20;65.00;;;;;;5014679;28;20037;-66
2021/04/05 11:20:42;;;;;;;7.95;2.70;;;24.20;64.60;;;;;;5040678;28;20029;-69
2021/04/05 11:23:15;;;;;;;3.67;2.08;;;24.30;64.60;;;;;;5019180;28;20029;-67
2021/04/05 11:25:58;;;;;;;9.18;2.63;;;24.30;64.10;;;;;;5020762;28;20034;-65
2021/04/05 11:28:27;;;;;;;13.23;3.47;;;24.30;64.00;;;;;;5018452;28;20076;-73
2021/04/05 11:31:13;;;;;;;7.57;2.58;;;24.40;63.80;;;;;;5018908;28;20376;-70
2021/04/05 11:33:54;;;;;;;9.98;3.35;;;24.40;63.70;;;;;;5019277;28;20050;-71
2021/04/05 11:36:22;;;;;;;6.97;2.00;;;24.50;63.50;;;;;;5021759;28;20052;-71
2021/04/05 11:38:51;;;;;;;7.45;3.13;;;24.50;63.20;;;;;;5019582;28;20014;-71
2021/04/05 11:41:25;;;;;;;5.78;2.10;;;24.50;63.00;;;;;;5019984;28;20017;-70
2021/04/05 11:43:57;;;;;;;13.47;3.10;;;24.60;62.80;;;;;;5020672;28;20026;-74
2021/04/05 11:46:29;;;;;;;12.75;3.25;;;24.60;62.70;;;;;;5018873;28;20045;-72
2021/04/05 11:49:10;;;;;;;6.78;2.10;;;24.60;62.30;;;;;;5019070;28;20477;-72
2021/04/05 11:51:49;;;;;;;8.32;2.30;;;24.60;62.30;;;;;;5022476;28;20029;-69
2021/04/05 11:54:51;;;;;;;9.07;2.65;;;24.60;62.10;;;;;;5018374;28;20030;-72
2021/04/05 11:57:32;;;;;;;9.25;2.50;;;24.70;62.10;;;;;;5019404;28;20391;-64
2021/04/05 12:00:06;;;;;;;12.85;3.70;;;24.70;62.10;;;;;;5018958;28;20033;-65
2021/04/05 12:02:42;;;;;;;14.03;2.03;;;24.70;62.40;;;;;;5027598;28;20041;-65
2021/04/05 12:05:18;;;;;;;10.18;2.63;;;24.70;61.70;;;;;;5027370;28;20297;-63
2021/04/05 12:07:48;;;;;;;11.70;4.15;;;24.80;61.70;;;;;;5026005;28;20730;-68
2021/04/05 12:10:26;;;;;;;9.80;3.42;;;24.80;61.40;;;;;;5024582;28;20026;-65
2021/04/05 12:13:03;;;;;;;6.90;2.58;;;24.80;61.00;;;;;;5025897;28;20017;-70
2021/04/05 12:15:33;;;;;;;6.53;1.88;;;24.80;60.80;;;;;;5027417;28;20052;-70
2021/04/05 12:18:01;;;;;;;5.22;1.52;;;24.90;60.80;;;;;;5026155;28;20053;-64
2021/04/05 12:20:30;;;;;;;11.15;2.50;;;24.90;60.80;;;;;;5026221;28;20067;-64
2021/04/05 12:23:05;;;;;;;6.93;1.98;;;25.00;60.80;;;;;;5025893;28;20404;-64
2021/04/05 12:25:40;;;;;;;8.43;1.83;;;25.00;60.60;;;;;;5023993;28;20057;-66
2021/04/05 12:28:09;;;;;;;8.45;2.67;;;25.00;60.50;;;;;;5028416;28;20032;-72
2021/04/05 12:30:37;;;;;;;4.85;2.72;;;25.00;60.40;;;;;;5025506;28;20033;-64
2021/04/05 12:33:07;;;;;;;8.27;2.20;;;25.00;60.10;;;;;;5026594;28;20132;-64
2021/04/05 12:35:35;;;;;;;8.52;2.72;;;25.10;60.00;;;;;;5024628;28;20037;-66
2021/04/05 12:38:06;;;;;;;7.57;1.70;;;25.10;59.90;;;;;;5028063;28;20025;-65
2021/04/05 12:40:38;;;;;;;8.85;1.60;;;25.10;59.70;;;;;;5027069;28;20088;-70
2021/04/05 12:43:14;;;;;;;7.43;1.95;;;25.10;59.30;;;;;;5025660;28;20026;-70
2021/04/05 12:45:54;;;;;;;4.38;1.98;;;25.10;59.40;;;;;;5027136;28;20079;-67
2021/04/05 12:48:27;;;;;;;7.72;2.53;;;25.10;59.60;;;;;;5025525;28;20428;-63
2021/04/05 12:51:01;;;;;;;12.07;2.00;;;25.10;59.60;;;;;;5022148;28;20049;-64
2021/04/05 12:53:31;;;;;;;11.82;2.80;;;25.10;59.70;;;;;;5023594;28;20053;-64
2021/04/05 12:56:00;;;;;;;7.07;2.45;;;25.10;59.60;;;;;;5023070;28;20037;-64
2021/04/05 12:58:33;;;;;;;15.05;2.17;;;25.10;59.60;;;;;;5025151;28;20039;-63
2021/04/05 13:01:02;;;;;;;10.23;2.88;;;25.10;59.40;;;;;;5023475;28;20022;-64
2021/04/05 13:03:43;;;;;;;6.43;1.85;;;25.10;58.90;;;;;;5021141;28;20021;-64
2021/04/05 13:06:21;;;;;;;7.88;3.72;;;25.10;59.00;;;;;;5025608;28;20048;-64
2021/04/05 13:09:22;;;;;;;7.43;2.72;;;25.10;59.20;;;;;;5023477;28;20026;-64
2021/04/05 13:12:18;;;;;;;8.98;3.13;;;25.10;59.20;;;;;;5024307;28;20556;-64
2021/04/05 13:14:54;;;;;;;8.00;2.20;;;25.10;58.90;;;;;;5021186;28;20091;-68
2021/04/05 13:17:33;;;;;;;8.45;2.30;;;25.10;58.40;;;;;;5028463;28;20410;-63
2021/04/05 13:20:13;;;;;;;15.73;2.67;;;25.10;58.10;;;;;;5025606;28;20025;-63
2021/04/05 13:22:44;;;;;;;8.80;3.22;;;25.00;58.10;;;;;;5021452;28;20018;-64
2021/04/05 13:25:45;;;;;;;9.68;2.00;;;25.00;58.20;;;;;;5024445;28;20075;-66
2021/04/05 13:28:19;;;;;;;12.18;2.35;;;25.00;58.20;;;;;;5028178;28;20029;-64
2021/04/05 13:30:49;;;;;;;8.50;3.28;;;25.00;57.80;;;;;;5026227;28;20075;-65
2021/04/05 13:33:22;;;;;;;10.40;2.85;;;25.00;57.80;;;;;;5022373;28;20042;-65
2021/04/05 13:35:51;;;;;;;7.65;2.15;;;25.00;57.80;;;;;;5025349;28;20029;-65